EPWR

Copernicus Wrocław Airport

Wrocław, Poland

TAF EPWR 302330Z 0100/0124 10012KT CAVOK PROB30 0105/0107 BKN010 TEMPO 0108/0122 10016G26KT

Issued Valid From Valid To
Apr-30 @ 23:30 UTC
(60 minutes ago)
May-1 @ 00:00 UTC
(30 minutes ago)
May-2 @ 00:00 UTC
(in 24 hours)
May-1 @ 00:00 - May-2 @ 00:00
Wind Visibility Clouds Conditions
100° at 12 knots 10 km or more
  • No significant clouds
Probability 30% Probable May-1 @ 05:00 - May-1 @ 07:00
Clouds
  • Broken at 1,000' AGL
Temporary May-1 @ 08:00 - May-1 @ 22:00
Wind
100° at 16 knots
 Gusting to 26 knots
Issued Apr-30 @ 23:30 UTC
(60 minutes ago)
Valid From May-1 @ 00:00 UTC
(30 minutes ago)
Valid To May-2 @ 00:00 UTC
(in 24 hours)
May-1 @ 00:00 - May-2 @ 00:00
Wind Visibility
100° at 12 knots 10 km or more
Clouds Conditions
  • No significant clouds
Probability 30% Probable May-1 @ 05:00 - May-1 @ 07:00
Clouds
  • Broken at 1,000' AGL
Temporary May-1 @ 08:00 - May-1 @ 22:00
Wind
100° at 16 knots
 Gusting to 26 knots